Terminal Aerodrome Forecast
Issued by NWS

Home | Current Version | Previous Version | Text Only | Print | Product List | Glossary On
Versions: 1 2 3 4 5 6 7 8 9 10 11 12 13 14 15 16 17 18 19 20 21 22 23 24 25
000
FTUS46 KPDT 051720
TAFBDN
TAF
KBDN 051720Z 0518/0618 VRB04KT P6SM BKN150
     FM052000 33013G21KT P6SM SCT070 BKN100
     FM060300 33007KT P6SM SCT045 BKN070
     FM060900 VRB04KT P6SM SCT045
     FM061700 31013KT P6SM FEW050 BKN100=

USA.gov is the U.S. government's official web portal to all federal, state and local government web resources and services.